KSVC 
Grant County Airport
Silver City, New Mexico, United States 
ICAOIATAStatusUseage
KSVCSVCOperationalPublic
LatitudeLongitude
32° 38' 11" N108° 9' 22" W
32.636547-108.156385
Local Time (DST-6)UTC (GMT-7)
04-24-2014 08:32 am04-24-2014 14:32
Sunrise-SunsetLocalUTC
Begin Civil Twilight06:04 am12:04
Sunrise06:30 am12:30
Sunset07:50 pm01:50
End Civil Twilight08:16 pm02:16

Current Weather

METARObservedFlight Conditions

KSVC 241415Z AUTO 33008KT 10SM CLR 13/M10 A3014

Thu, Apr 24, 2014 @ 14:15 UTC(Z)

(17 Minutes ago)

VFR

(Visual Flight Rules)

WindVisibilityCloudsConditions
330° at 8 knots (9 mph)
10 statute miles
  • Clear skies
  • No significant weather
TemperaturesReadingsPrecipitation
Current Temp13°C (55°F)
Dewpoint-10°C (14°F)
Humidity19%
Altimeter30.14"Hg
Sea Level Pressure1021mb
Field Elevation5443.01'
None Recorded

Additional weather within a 50nm radius of KSVC

Location METAR
KDMN

31.5nm S (135°)

39 minutes ago
KLSB

32.6nm S (236°)

17 minutes ago
VFR VFR    MVFR MVFR    IFR IFR    LIFR LIFR    Unknown Unknown

Previous 24 hour Weather Graphs

  Loading...

CheckWX.com is intended as a tool to help pilots better visualize weather data.   It is not intended as a substitute for an official weather briefing obtained from a Flight Service Station.
CheckWX.com does not meet the FAA requirements for an official pre-flight weather briefing.   Therefore, it's important that pilots still call and obtain an official FSS pre-flight weather briefing.